createdAt,value
2024-02-29T00:01:22.829Z,9.30
2024-02-29T00:03:51.070Z,9.30
2024-02-29T00:06:19.148Z,9.23
2024-02-29T00:08:47.484Z,9.17
2024-02-29T00:11:15.632Z,9.07
2024-02-29T00:13:45.085Z,8.97
2024-02-29T00:16:13.369Z,9.67
2024-02-29T00:18:41.720Z,9.57
2024-02-29T00:21:09.834Z,9.50
2024-02-29T00:23:37.882Z,8.80
2024-02-29T00:26:07.466Z,9.33
2024-02-29T00:28:35.646Z,9.30
2024-02-29T00:31:05.849Z,10.43
2024-02-29T00:33:34.507Z,9.67
2024-02-29T00:36:09.226Z,10.03
2024-02-29T00:38:38.272Z,9.60
2024-02-29T00:41:06.446Z,10.03
2024-02-29T00:43:34.532Z,9.40
2024-02-29T00:46:04.225Z,9.90
2024-02-29T00:48:32.385Z,9.47
2024-02-29T00:51:00.462Z,9.60
2024-02-29T00:53:28.555Z,9.90
2024-02-29T00:55:56.631Z,9.87
2024-02-29T00:58:24.700Z,10.37
2024-02-29T01:00:52.826Z,9.63
2024-02-29T01:03:22.367Z,10.20
2024-02-29T01:05:50.468Z,10.17
2024-02-29T01:08:18.494Z,10.37
2024-02-29T01:10:46.895Z,9.30
2024-02-29T01:13:15.224Z,10.37
2024-02-29T01:15:43.385Z,9.10
2024-02-29T01:18:11.552Z,9.57
2024-02-29T01:20:41.056Z,9.43
2024-02-29T01:23:09.261Z,9.67
2024-02-29T01:25:37.432Z,9.50
2024-02-29T01:28:05.827Z,10.20
2024-02-29T01:30:34.016Z,9.87
2024-02-29T01:33:02.134Z,9.57
2024-02-29T01:35:30.705Z,10.30
2024-02-29T01:38:00.120Z,9.80
2024-02-29T01:40:28.210Z,10.13
2024-02-29T01:42:56.247Z,10.83
2024-02-29T01:45:24.458Z,9.60
2024-02-29T01:47:52.505Z,10.67
2024-02-29T01:50:21.876Z,10.17
2024-02-29T01:52:50.737Z,10.23
2024-02-29T01:55:20.372Z,10.97
2024-02-29T01:57:48.617Z,10.60
2024-02-29T02:00:17.949Z,10.20
2024-02-29T02:02:46.665Z,10.43
2024-02-29T02:05:14.804Z,11.13
2024-02-29T02:07:45.273Z,10.83
2024-02-29T02:10:13.775Z,11.07
2024-02-29T02:12:45.133Z,10.50
2024-02-29T02:15:13.247Z,11.10
2024-02-29T02:17:42.503Z,10.37
2024-02-29T02:20:18.175Z,11.03
2024-02-29T02:22:46.700Z,11.03
2024-02-29T02:25:14.908Z,11.27
2024-02-29T02:27:43.126Z,11.73
2024-02-29T02:30:12.316Z,11.93
2024-02-29T02:32:41.260Z,11.57
2024-02-29T02:35:10.226Z,11.70
2024-02-29T02:37:39.703Z,11.60
2024-02-29T02:40:09.887Z,11.33
2024-02-29T02:42:38.138Z,11.77
2024-02-29T02:45:07.089Z,11.47
2024-02-29T02:47:35.167Z,11.70
2024-02-29T02:50:03.320Z,11.60
2024-02-29T02:52:31.418Z,12.00
2024-02-29T02:55:00.929Z,12.10
2024-02-29T02:57:29.021Z,12.23
2024-02-29T02:59:57.172Z,12.27
2024-02-29T03:02:25.389Z,12.73
2024-02-29T03:04:53.627Z,12.80
2024-02-29T03:07:21.708Z,12.07
2024-02-29T03:09:49.777Z,13.67
2024-02-29T03:12:19.228Z,13.43
2024-02-29T03:14:47.293Z,14.43
2024-02-29T03:17:15.360Z,13.63
2024-02-29T03:19:43.427Z,14.10
2024-02-29T03:22:11.611Z,15.13
2024-02-29T03:24:43.352Z,14.27
2024-02-29T03:27:12.414Z,15.30
2024-02-29T03:29:42.204Z,15.50
2024-02-29T03:32:11.535Z,15.47
2024-02-29T03:34:40.230Z,15.40
2024-02-29T03:37:09.091Z,15.27
2024-02-29T03:39:37.373Z,15.97
2024-02-29T03:42:05.524Z,15.80
2024-02-29T03:44:33.571Z,15.53
2024-02-29T03:47:02.999Z,15.50
2024-02-29T03:49:31.060Z,15.77
2024-02-29T03:51:59.168Z,15.63
2024-02-29T03:54:27.322Z,16.17
2024-02-29T03:56:55.607Z,16.03
2024-02-29T03:59:23.811Z,17.40
2024-02-29T04:01:52.567Z,17.27
2024-02-29T04:04:22.607Z,16.53
2024-02-29T04:06:51.036Z,17.27
2024-02-29T04:09:19.164Z,16.30
2024-02-29T04:11:47.389Z,16.93
2024-02-29T04:14:15.547Z,17.27
2024-02-29T04:16:43.665Z,16.80
2024-02-29T04:19:11.809Z,16.70
2024-02-29T04:21:44.871Z,17.90
2024-02-29T04:24:13.016Z,17.37
2024-02-29T04:26:41.087Z,18.23
2024-02-29T04:29:09.199Z,18.23
2024-02-29T04:31:37.243Z,17.67
2024-02-29T04:34:05.359Z,18.60
2024-02-29T04:36:33.508Z,18.13
2024-02-29T04:39:02.940Z,18.37
2024-02-29T04:41:31.014Z,18.93
2024-02-29T04:43:59.102Z,18.50
2024-02-29T04:46:27.194Z,19.53
2024-02-29T04:48:55.282Z,19.27
2024-02-29T04:51:24.232Z,19.27
2024-02-29T04:53:52.314Z,19.70
2024-02-29T04:56:21.772Z,19.33
2024-02-29T04:58:49.981Z,19.63
2024-02-29T05:01:18.975Z,19.50
2024-02-29T05:03:47.194Z,19.80
2024-02-29T05:06:17.585Z,18.97
2024-02-29T05:08:45.884Z,20.13
2024-02-29T05:11:14.155Z,19.23
2024-02-29T05:13:43.781Z,19.63
2024-02-29T05:16:11.999Z,20.07
2024-02-29T05:18:40.160Z,20.03
2024-02-29T05:21:08.301Z,20.73
2024-02-29T05:23:36.359Z,20.40
2024-02-29T05:26:05.377Z,21.23
2024-02-29T05:28:33.496Z,20.13
2024-02-29T05:31:03.304Z,17.93
2024-02-29T05:33:31.437Z,18.83
2024-02-29T05:35:59.646Z,19.83
2024-02-29T05:38:27.863Z,20.07
2024-02-29T05:40:55.943Z,17.60
2024-02-29T05:43:24.067Z,17.97
2024-02-29T05:45:52.169Z,17.63
2024-02-29T05:48:21.615Z,18.17
2024-02-29T05:50:49.717Z,17.83
2024-02-29T05:53:17.774Z,16.60
2024-02-29T05:55:45.850Z,16.60
2024-02-29T05:58:14.151Z,16.37
2024-02-29T06:00:43.099Z,16.77
2024-02-29T06:03:11.273Z,16.63
2024-02-29T06:05:41.174Z,17.10
2024-02-29T06:08:09.245Z,16.73
2024-02-29T06:10:37.302Z,17.40
2024-02-29T06:13:05.617Z,15.70
2024-02-29T06:15:34.244Z,16.93
2024-02-29T06:18:02.395Z,16.27
2024-02-29T06:20:30.553Z,16.10
2024-02-29T06:23:00.217Z,15.37
2024-02-29T06:25:28.339Z,16.23
2024-02-29T06:27:58.228Z,16.30
2024-02-29T06:30:33.957Z,15.80
2024-02-29T06:33:03.291Z,15.20
2024-02-29T06:35:31.443Z,16.23
2024-02-29T06:38:00.825Z,15.27
2024-02-29T06:40:28.926Z,15.77
2024-02-29T06:42:57.311Z,16.60
2024-02-29T06:45:25.403Z,16.17
2024-02-29T06:47:56.328Z,16.33
2024-02-29T06:50:24.406Z,16.93
2024-02-29T06:52:54.664Z,17.37
2024-02-29T06:55:24.532Z,17.40
2024-02-29T06:57:52.778Z,18.40
2024-02-29T07:00:21.396Z,17.83
2024-02-29T07:02:49.469Z,18.73
2024-02-29T07:05:17.977Z,17.10
2024-02-29T07:07:46.068Z,17.07
2024-02-29T07:10:14.877Z,17.17
2024-02-29T07:12:44.518Z,16.83
2024-02-29T07:15:12.735Z,16.77
2024-02-29T07:17:40.880Z,17.00
2024-02-29T07:20:11.771Z,15.57
2024-02-29T07:22:39.818Z,15.57
2024-02-29T07:25:09.943Z,16.43
2024-02-29T07:27:40.019Z,15.20
2024-02-29T07:30:10.601Z,15.07
2024-02-29T07:32:39.073Z,15.90
2024-02-29T07:35:08.094Z,16.30
2024-02-29T07:37:39.844Z,15.23
2024-02-29T07:40:09.500Z,14.87
2024-02-29T07:42:39.587Z,14.80
2024-02-29T07:45:10.417Z,15.07
2024-02-29T07:47:39.661Z,14.30
2024-02-29T07:50:10.739Z,14.03
2024-02-29T07:52:39.469Z,13.87
2024-02-29T07:55:07.910Z,13.93
2024-02-29T07:57:36.219Z,14.43
2024-02-29T08:00:05.655Z,14.03
2024-02-29T08:02:35.104Z,14.03
2024-02-29T08:05:03.448Z,14.23
2024-02-29T08:07:32.400Z,14.13
2024-02-29T08:10:00.579Z,14.43
2024-02-29T08:12:28.677Z,14.60
2024-02-29T08:14:56.734Z,14.43
2024-02-29T08:17:28.168Z,14.67
2024-02-29T08:19:57.876Z,14.27
2024-02-29T08:22:26.734Z,14.63
2024-02-29T08:24:54.881Z,14.17
2024-02-29T08:27:22.962Z,14.77
2024-02-29T08:29:51.030Z,13.93
2024-02-29T08:32:19.229Z,14.57
2024-02-29T08:34:47.408Z,14.47
2024-02-29T08:37:16.906Z,14.63
2024-02-29T08:39:45.019Z,14.07
2024-02-29T08:42:13.304Z,13.73
2024-02-29T08:44:44.504Z,14.27
2024-02-29T08:47:12.648Z,13.63
2024-02-29T08:49:40.720Z,14.50
2024-02-29T08:52:09.660Z,14.53
2024-02-29T08:54:39.346Z,13.50
2024-02-29T08:57:08.586Z,13.57
2024-02-29T08:59:36.777Z,14.13
2024-02-29T09:02:08.801Z,12.43
2024-02-29T09:04:37.079Z,12.57
2024-02-29T09:07:05.368Z,12.63
2024-02-29T09:09:33.480Z,12.53
2024-02-29T09:12:07.323Z,13.40
2024-02-29T09:14:36.719Z,12.20
2024-02-29T09:17:05.628Z,12.33
2024-02-29T09:19:33.843Z,12.93
2024-02-29T09:22:02.091Z,12.70
2024-02-29T09:24:30.156Z,12.93
2024-02-29T09:26:58.282Z,13.80
2024-02-29T09:29:30.519Z,14.20
2024-02-29T09:32:00.769Z,14.50
2024-02-29T09:34:29.494Z,15.20
2024-02-29T09:36:57.610Z,14.73
2024-02-29T09:39:25.721Z,15.10
2024-02-29T09:42:08.873Z,14.87
2024-02-29T09:44:44.443Z,14.13
2024-02-29T09:47:14.057Z,14.30
2024-02-29T09:49:43.576Z,14.07
2024-02-29T09:52:14.600Z,15.33
2024-02-29T09:54:42.930Z,14.03
2024-02-29T09:57:13.391Z,16.10
2024-02-29T09:59:44.873Z,15.53
2024-02-29T10:02:16.719Z,16.27
2024-02-29T10:04:45.115Z,16.33
2024-02-29T10:07:13.226Z,16.83
2024-02-29T10:09:41.421Z,16.33
2024-02-29T10:12:09.701Z,16.10
2024-02-29T10:14:37.812Z,16.67
2024-02-29T10:17:07.336Z,17.97
2024-02-29T10:19:39.337Z,17.00
2024-02-29T10:24:35.546Z,17.40
2024-02-29T10:27:04.256Z,18.33
2024-02-29T10:29:32.409Z,17.60
2024-02-29T10:32:00.711Z,18.40
2024-02-29T10:34:30.176Z,18.23
2024-02-29T10:36:58.296Z,18.10
2024-02-29T10:39:27.360Z,17.87
2024-02-29T10:41:59.691Z,18.50
2024-02-29T10:44:32.917Z,18.57
2024-02-29T10:47:04.352Z,18.13
2024-02-29T10:49:39.985Z,18.17
2024-02-29T10:52:11.781Z,16.57
2024-02-29T10:54:44.411Z,15.80
2024-02-29T10:57:17.100Z,16.00
2024-02-29T10:59:53.689Z,14.97
2024-02-29T11:02:22.764Z,14.67
2024-02-29T11:04:52.955Z,15.07
2024-02-29T11:07:22.454Z,14.07
2024-02-29T11:09:50.663Z,13.07
2024-02-29T11:12:20.787Z,13.37
2024-02-29T11:14:51.928Z,12.00
2024-02-29T11:17:20.220Z,11.87
2024-02-29T11:19:58.766Z,11.60
2024-02-29T11:22:33.934Z,11.53
2024-02-29T11:25:02.226Z,11.13
2024-02-29T11:27:36.343Z,11.13
2024-02-29T11:30:05.724Z,11.10
2024-02-29T11:32:35.082Z,10.93
2024-02-29T11:35:05.420Z,10.97
2024-02-29T11:37:36.428Z,10.33
2024-02-29T11:40:06.731Z,9.67
2024-02-29T11:42:36.758Z,10.27
2024-02-29T11:45:05.426Z,9.97
2024-02-29T11:47:34.108Z,9.70
2024-02-29T11:50:02.889Z,9.43
2024-02-29T11:52:32.597Z,9.10
2024-02-29T11:55:01.716Z,7.70
2024-02-29T11:57:29.973Z,7.70
2024-02-29T11:59:58.078Z,7.20
2024-02-29T12:02:26.139Z,7.03
2024-02-29T12:04:54.294Z,6.60
2024-02-29T12:07:22.684Z,6.77
2024-02-29T12:09:52.555Z,7.07
2024-02-29T12:12:22.463Z,6.27
2024-02-29T12:14:50.645Z,6.80
2024-02-29T12:17:20.039Z,6.20
2024-02-29T12:19:48.201Z,6.73
2024-02-29T12:22:16.291Z,6.00
2024-02-29T12:24:44.647Z,6.67
2024-02-29T12:27:14.189Z,6.40
2024-02-29T12:29:43.013Z,5.87
2024-02-29T12:32:12.533Z,6.07
2024-02-29T12:34:43.182Z,5.50
2024-02-29T12:37:13.222Z,5.33
2024-02-29T12:39:41.833Z,5.50
2024-02-29T12:42:11.156Z,4.40
2024-02-29T12:44:41.139Z,4.70
2024-02-29T12:47:09.170Z,4.63
2024-02-29T12:49:37.217Z,4.20
2024-02-29T12:52:05.649Z,4.33
2024-02-29T12:54:34.733Z,4.80
2024-02-29T12:57:02.869Z,4.00
2024-02-29T12:59:30.946Z,3.73
2024-02-29T13:02:01.207Z,4.10
2024-02-29T13:04:29.364Z,4.20
2024-02-29T13:06:58.284Z,4.13
2024-02-29T13:09:26.503Z,4.00
2024-02-29T13:11:54.706Z,4.00
2024-02-29T13:14:22.760Z,3.60
2024-02-29T13:16:51.438Z,3.90
2024-02-29T13:19:20.982Z,3.80
2024-02-29T13:21:49.098Z,4.00
2024-02-29T13:24:17.181Z,3.80
2024-02-29T13:26:45.326Z,4.20
2024-02-29T13:29:14.087Z,3.90
2024-02-29T13:31:42.162Z,4.37
2024-02-29T13:34:10.443Z,3.90
2024-02-29T13:36:39.894Z,3.77
2024-02-29T13:39:10.540Z,3.40
2024-02-29T13:41:38.614Z,3.63
2024-02-29T13:44:06.686Z,3.23
2024-02-29T13:46:34.916Z,3.50
2024-02-29T13:49:20.777Z,3.20
2024-02-29T13:51:52.312Z,3.33
2024-02-29T13:54:20.419Z,3.20
2024-02-29T13:56:48.757Z,3.33
2024-02-29T13:59:17.063Z,3.10
2024-02-29T14:01:45.253Z,3.20
2024-02-29T14:04:13.412Z,3.40
2024-02-29T14:06:41.716Z,3.03
2024-02-29T14:09:12.457Z,3.17
2024-02-29T14:11:41.001Z,3.57
2024-02-29T14:14:10.066Z,3.23
2024-02-29T14:16:38.182Z,3.27
2024-02-29T14:19:06.333Z,3.30
2024-02-29T14:21:35.357Z,3.90
2024-02-29T14:24:03.480Z,3.60
2024-02-29T14:26:33.015Z,3.67
2024-02-29T14:29:01.143Z,3.43
2024-02-29T14:31:29.624Z,3.60
2024-02-29T14:33:57.738Z,3.80
2024-02-29T14:36:26.100Z,3.43
2024-02-29T14:38:54.264Z,3.50
2024-02-29T14:41:22.324Z,3.30
2024-02-29T14:43:51.955Z,3.37
2024-02-29T14:46:20.155Z,2.97
2024-02-29T14:48:48.310Z,3.23
2024-02-29T14:51:16.466Z,3.20
2024-02-29T14:53:50.624Z,2.97
2024-02-29T14:56:19.024Z,2.93
2024-02-29T14:58:47.115Z,3.33
2024-02-29T15:01:16.666Z,3.67
2024-02-29T15:03:45.065Z,3.23
2024-02-29T15:06:13.255Z,3.27
2024-02-29T15:08:41.550Z,3.63
2024-02-29T15:11:09.782Z,4.20
2024-02-29T15:13:38.363Z,4.00
2024-02-29T15:16:07.041Z,4.07
2024-02-29T15:18:37.295Z,4.20
2024-02-29T15:21:05.864Z,4.00
2024-02-29T15:23:33.922Z,4.20
2024-02-29T15:26:02.116Z,4.13
2024-02-29T15:28:33.124Z,3.97
2024-02-29T15:31:01.502Z,3.90
2024-02-29T15:33:29.642Z,3.80
2024-02-29T15:35:59.226Z,4.10
2024-02-29T15:38:27.346Z,4.90
2024-02-29T15:40:55.374Z,4.40
2024-02-29T15:43:23.550Z,5.13
2024-02-29T15:45:51.781Z,4.97
2024-02-29T15:48:19.890Z,5.33
2024-02-29T15:50:49.320Z,5.07
2024-02-29T15:53:18.933Z,5.40
2024-02-29T15:55:49.346Z,5.80
2024-02-29T15:58:17.830Z,6.83
2024-02-29T16:00:46.072Z,8.53
2024-02-29T16:03:14.213Z,6.93
2024-02-29T16:05:42.830Z,5.43
2024-02-29T16:08:10.896Z,5.07
2024-02-29T16:10:40.409Z,8.00
2024-02-29T16:13:10.883Z,5.67
2024-02-29T16:15:39.112Z,5.60
2024-02-29T16:18:10.703Z,5.40
2024-02-29T16:20:38.781Z,6.30
2024-02-29T16:23:06.886Z,5.70
2024-02-29T16:25:35.034Z,6.73
2024-02-29T16:28:05.665Z,5.60
2024-02-29T16:30:34.455Z,6.93
2024-02-29T16:33:02.616Z,6.10
2024-02-29T16:35:30.682Z,6.23
2024-02-29T16:37:59.756Z,7.17
2024-02-29T16:40:28.051Z,6.60
2024-02-29T16:42:56.255Z,5.80
2024-02-29T16:45:25.688Z,6.40
2024-02-29T16:47:53.895Z,6.23
2024-02-29T16:50:22.016Z,5.90
2024-02-29T16:52:49.768Z,5.60
2024-02-29T16:55:17.897Z,5.90
2024-02-29T16:57:46.184Z,5.33
2024-02-29T17:00:19.007Z,5.53
2024-02-29T17:02:48.428Z,5.50
2024-02-29T17:05:16.683Z,5.43
2024-02-29T17:07:45.344Z,5.40
2024-02-29T17:10:14.296Z,5.63
2024-02-29T17:12:42.746Z,5.83
2024-02-29T17:15:11.704Z,5.80
2024-02-29T17:17:39.910Z,6.30
2024-02-29T17:20:10.290Z,5.80
2024-02-29T17:22:38.546Z,6.30
2024-02-29T17:25:07.954Z,6.53
2024-02-29T17:27:37.349Z,7.07
2024-02-29T17:30:06.111Z,5.90
2024-02-29T17:32:34.379Z,6.30
2024-02-29T17:35:02.676Z,6.73
2024-02-29T17:37:32.113Z,6.23
2024-02-29T17:40:00.436Z,6.50
2024-02-29T17:42:29.560Z,5.77
2024-02-29T17:44:57.717Z,6.70
2024-02-29T17:47:25.839Z,6.47
2024-02-29T17:49:54.009Z,5.97
2024-02-29T17:52:22.570Z,6.40
2024-02-29T17:54:52.247Z,6.07
2024-02-29T17:57:20.710Z,6.33
2024-02-29T17:59:48.756Z,6.13
2024-02-29T18:02:16.883Z,6.87
2024-02-29T18:04:45.036Z,6.90
2024-02-29T18:07:13.186Z,6.87
2024-02-29T18:09:42.235Z,7.30
2024-02-29T18:12:11.823Z,6.60
2024-02-29T18:14:39.908Z,6.90
2024-02-29T18:17:07.963Z,7.20
2024-02-29T18:19:36.024Z,6.43
2024-02-29T18:22:04.304Z,6.77
2024-02-29T18:24:32.469Z,7.37
2024-02-29T18:27:01.215Z,6.80
2024-02-29T18:29:30.725Z,7.73
2024-02-29T18:31:58.873Z,7.43
2024-02-29T18:34:27.194Z,17.93
2024-02-29T18:36:55.421Z,7.70
2024-02-29T18:39:24.010Z,9.43
2024-02-29T18:41:52.113Z,7.97
2024-02-29T18:44:20.190Z,8.97
2024-02-29T18:46:50.112Z,8.77
2024-02-29T18:49:20.889Z,8.67
2024-02-29T18:51:51.096Z,9.07
2024-02-29T18:54:19.976Z,8.03
2024-02-29T18:56:49.269Z,8.70
2024-02-29T18:59:17.565Z,8.30
2024-02-29T19:01:46.299Z,8.50
2024-02-29T19:04:18.201Z,8.00
2024-02-29T19:06:46.928Z,8.37
2024-02-29T19:09:15.076Z,8.53
2024-02-29T19:11:43.167Z,9.07
2024-02-29T19:14:11.395Z,9.13
2024-02-29T19:16:45.888Z,9.23
2024-02-29T19:19:15.500Z,8.47
2024-02-29T19:21:43.643Z,9.07
2024-02-29T19:24:12.483Z,11.57
2024-02-29T19:26:40.776Z,8.97
2024-02-29T19:29:08.881Z,9.93
2024-02-29T19:31:36.989Z,9.43
2024-02-29T19:34:06.121Z,11.00
2024-02-29T19:36:35.666Z,9.53
2024-02-29T19:39:04.080Z,9.97
2024-02-29T19:41:32.240Z,9.30
2024-02-29T19:44:00.337Z,10.47
2024-02-29T19:46:28.486Z,9.47
2024-02-29T19:48:56.648Z,9.37
2024-02-29T19:51:24.865Z,9.40
2024-02-29T19:53:54.285Z,9.03
2024-02-29T19:56:22.387Z,9.70
2024-02-29T19:58:50.453Z,9.60
2024-02-29T20:01:18.608Z,9.00
2024-02-29T20:03:46.806Z,8.93
2024-02-29T20:06:14.949Z,9.60
2024-02-29T20:08:43.692Z,9.50
2024-02-29T20:11:13.141Z,9.90
2024-02-29T20:13:41.239Z,9.67
2024-02-29T20:16:09.822Z,9.83
2024-02-29T20:18:37.945Z,9.73
2024-02-29T20:21:06.690Z,9.90
2024-02-29T20:23:35.684Z,9.40
2024-02-29T20:26:03.841Z,9.80
2024-02-29T20:28:33.354Z,9.83
2024-02-29T20:31:02.478Z,9.67
2024-02-29T20:33:30.569Z,9.67
2024-02-29T20:35:58.822Z,10.13
2024-02-29T20:38:26.906Z,10.40
2024-02-29T20:40:54.983Z,9.63
2024-02-29T20:43:23.147Z,9.47
2024-02-29T20:45:52.849Z,8.93
2024-02-29T20:48:20.962Z,9.30
2024-02-29T20:50:49.483Z,9.07
2024-02-29T20:53:17.654Z,9.30
2024-02-29T20:55:45.837Z,8.53
2024-02-29T20:58:14.204Z,8.40
2024-02-29T21:00:42.336Z,7.97
2024-02-29T21:03:11.876Z,7.90
2024-02-29T21:05:41.221Z,8.40
2024-02-29T21:08:09.521Z,8.27
2024-02-29T21:10:37.870Z,8.77
2024-02-29T21:13:06.189Z,7.60
2024-02-29T21:15:34.376Z,7.87
2024-02-29T21:18:03.974Z,8.40
2024-02-29T21:20:33.535Z,8.23
2024-02-29T21:23:01.806Z,8.10
2024-02-29T21:25:30.384Z,8.07
2024-02-29T21:27:58.797Z,7.80
2024-02-29T21:30:26.949Z,8.07
2024-02-29T21:32:55.100Z,7.63
2024-02-29T21:35:24.112Z,7.77
2024-02-29T21:37:53.652Z,8.23
2024-02-29T21:40:21.844Z,7.73
2024-02-29T21:42:51.876Z,8.07
2024-02-29T21:45:21.155Z,8.43
2024-02-29T21:47:49.393Z,8.23
2024-02-29T21:50:17.937Z,8.37
2024-02-29T21:52:46.002Z,8.57
2024-02-29T21:55:17.036Z,9.10
2024-02-29T21:57:45.285Z,9.23
2024-02-29T22:00:15.000Z,8.83
2024-02-29T22:02:43.215Z,8.90
2024-02-29T22:05:11.847Z,9.27
2024-02-29T22:07:40.182Z,9.07
2024-02-29T22:12:38.885Z,9.37
2024-02-29T22:15:08.999Z,10.17
2024-02-29T22:17:37.872Z,10.50
2024-02-29T22:20:08.388Z,11.07
2024-02-29T22:22:36.628Z,11.03
2024-02-29T22:25:05.208Z,11.67
2024-02-29T22:27:33.288Z,11.93
2024-02-29T22:30:02.742Z,10.50
2024-02-29T22:32:30.800Z,11.33
2024-02-29T22:34:58.917Z,11.83
2024-02-29T22:37:27.059Z,12.07
2024-02-29T22:39:55.233Z,11.67
2024-02-29T22:42:23.317Z,11.87
2024-02-29T22:44:51.332Z,12.47
2024-02-29T22:47:21.094Z,12.07
2024-02-29T22:49:49.188Z,11.70
2024-02-29T22:52:17.323Z,12.00
2024-02-29T22:54:45.452Z,11.43
2024-02-29T22:57:13.499Z,11.13
2024-02-29T22:59:41.638Z,11.10
2024-02-29T23:02:09.755Z,10.83
2024-02-29T23:04:39.244Z,11.40
2024-02-29T23:07:07.310Z,10.70
2024-02-29T23:09:35.547Z,10.80
2024-02-29T23:12:03.574Z,2.50
2024-02-29T23:14:31.632Z,0.90
2024-02-29T23:16:59.713Z,1.07
2024-02-29T23:19:27.944Z,0.93
2024-02-29T23:21:57.495Z,1.10
2024-02-29T23:24:25.532Z,1.10
2024-02-29T23:26:53.701Z,1.10
2024-02-29T23:29:21.826Z,1.30
2024-02-29T23:31:49.926Z,1.00
2024-02-29T23:34:18.869Z,1.47
2024-02-29T23:36:48.668Z,1.40
2024-02-29T23:39:18.340Z,1.53
2024-02-29T23:41:46.373Z,1.80
2024-02-29T23:44:14.462Z,2.10
2024-02-29T23:46:43.387Z,1.83
2024-02-29T23:49:11.471Z,1.50
2024-02-29T23:51:39.595Z,1.93
2024-02-29T23:54:07.647Z,1.80
2024-02-29T23:56:37.171Z,2.20
2024-02-29T23:59:05.251Z,2.20
